Bisbee Douglas International Airport
KDUG : now visible

Airfield :











YOU CAN JOIN US ON...

 
LOGIN :

Register | Disclaimer

   EN    FR    IT 

 









Legend :    VFR   Marginal VFR   IFR   Intensive IFR   Very Intensive IFR
Visi :
Ceiling :
>= 8 km
>= 3000ft
5 to 8 km
1000 to 3000 ft
1500m to 5 km
500 to 1000 ft
800 to 1500m
200 to 500 ft
< 800m
< 200 ft
Symbols :   Thunderstorms  Fog  Heavy snow  Heavy precipitations  Wind > 20 kt







- Airport Elevation : 4154 ft


KDUG - Bisbee Douglas International

CURRENT METAR :
  • 210156Z AUTO 22011KT 10SM CLR 24/M04 A2994 RMK AO2 PK WND 22031/0100 SLP082 T02391044 $

EXPIRED METARs :
  • 210056Z AUTO 23023G33KT 10SM CLR 27/M04 A2992 RMK AO2 PK WND 22033/0054 SLP076 T02671039 $
  • 202356Z AUTO 23016G26KT 10SM CLR 28/M03 A2992 RMK AO2 PK WND 21032/2302 SLP074 T02831028 10300 20278 55012 $

TAF KDUG
Valid from the 21 at 00:00 until the 22 at 00:00 UTC


202325Z 2100/2124 24024G34KT P6SM SKC
FM210300 20012KT P6SM SKC
FM211700 21015G25KT P6SM SKC
KZAB FIR / North America



MET'MAP, your aeronautical weather chart ! - Copyright ORBIFLY December 2007 - Disclaimer

ORBIFLY MET'MAP TEAM :

Programming & Development : Alexandra Zaïnal
Concept & Development : Baudouin d'Aumeries
Co-Development & Prog : Marc-Olivier Méhu
Technical & hardware support : Manuel Goepfert

Contact : metmap@orbifly.com




SOURCES & CREDITS :

   NOAA       Earth
Advisory